createdAt,value
2018-07-08T00:01:08.528Z,99.90
2018-07-08T00:03:34.433Z,99.90
2018-07-08T00:06:00.349Z,99.90
2018-07-08T00:08:27.005Z,99.90
2018-07-08T00:10:52.952Z,99.90
2018-07-08T00:13:18.854Z,99.90
2018-07-08T00:15:44.780Z,99.90
2018-07-08T00:18:10.688Z,99.90
2018-07-08T00:20:36.614Z,99.90
2018-07-08T00:23:02.531Z,99.90
2018-07-08T00:25:28.469Z,99.90
2018-07-08T00:27:54.400Z,99.90
2018-07-08T00:30:20.310Z,99.90
2018-07-08T00:32:46.246Z,99.90
2018-07-08T00:35:12.151Z,99.90
2018-07-08T00:37:38.073Z,99.90
2018-07-08T00:40:03.985Z,99.90
2018-07-08T00:42:29.915Z,99.90
2018-07-08T00:44:55.828Z,99.90
2018-07-08T00:47:21.763Z,99.90
2018-07-08T00:49:47.666Z,99.90
2018-07-08T00:52:13.617Z,99.90
2018-07-08T00:54:39.517Z,99.90
2018-07-08T00:57:05.430Z,99.90
2018-07-08T00:59:31.359Z,99.90
2018-07-08T01:01:57.271Z,99.90
2018-07-08T01:04:23.207Z,99.90
2018-07-08T01:06:49.107Z,99.90
2018-07-08T01:09:15.040Z,99.90
2018-07-08T01:11:40.951Z,99.90
2018-07-08T01:14:06.877Z,99.90
2018-07-08T01:16:32.798Z,99.90
2018-07-08T01:18:58.739Z,99.90
2018-07-08T01:21:24.649Z,99.90
2018-07-08T01:23:50.571Z,99.90
2018-07-08T01:26:16.495Z,99.90
2018-07-08T01:28:42.402Z,99.90
2018-07-08T01:31:08.331Z,99.90
2018-07-08T01:33:34.242Z,99.90
2018-07-08T01:36:00.178Z,99.90
2018-07-08T01:38:26.087Z,99.90
2018-07-08T01:40:52.018Z,99.90
2018-07-08T01:43:17.953Z,99.90
2018-07-08T01:45:43.907Z,99.90
2018-07-08T01:48:09.855Z,99.90
2018-07-08T01:50:35.796Z,99.90
2018-07-08T01:53:01.720Z,99.90
2018-07-08T01:55:27.631Z,99.90
2018-07-08T01:57:53.556Z,99.90
2018-07-08T02:00:19.475Z,99.90
2018-07-08T02:02:46.147Z,99.90
2018-07-08T02:05:12.050Z,99.90
2018-07-08T02:07:37.995Z,99.90
2018-07-08T02:10:03.911Z,99.90
2018-07-08T02:12:29.854Z,99.90
2018-07-08T02:14:55.765Z,99.90
2018-07-08T02:17:21.670Z,99.90
2018-07-08T02:19:47.607Z,99.90
2018-07-08T02:22:13.512Z,99.90
2018-07-08T02:24:39.443Z,99.90
2018-07-08T02:27:05.446Z,99.90
2018-07-08T02:29:31.379Z,99.90
2018-07-08T02:31:57.291Z,99.90
2018-07-08T02:34:23.231Z,99.90
2018-07-08T02:36:49.141Z,99.90
2018-07-08T02:39:15.065Z,99.90
2018-07-08T02:41:40.998Z,99.90
2018-07-08T02:44:06.904Z,99.90
2018-07-08T02:46:32.839Z,99.90
2018-07-08T02:48:58.743Z,99.90
2018-07-08T02:51:24.697Z,99.90
2018-07-08T02:53:51.391Z,99.90
2018-07-08T02:56:17.321Z,99.90
2018-07-08T02:58:43.231Z,99.90
2018-07-08T03:01:09.140Z,99.90
2018-07-08T03:03:35.820Z,99.90
2018-07-08T03:06:01.727Z,99.90
2018-07-08T03:08:27.653Z,99.90
2018-07-08T03:10:53.548Z,99.90
2018-07-08T03:13:20.231Z,99.90
2018-07-08T03:15:46.906Z,99.90
2018-07-08T03:18:13.584Z,99.90
2018-07-08T03:20:39.494Z,99.90
2018-07-08T03:23:05.438Z,99.90
2018-07-08T03:25:31.360Z,99.90
2018-07-08T03:27:57.267Z,99.90
2018-07-08T03:30:23.203Z,99.90
2018-07-08T03:32:49.119Z,99.90
2018-07-08T03:35:15.034Z,99.90
2018-07-08T03:37:40.935Z,99.90
2018-07-08T03:40:06.868Z,99.90
2018-07-08T03:42:32.775Z,99.90
2018-07-08T03:44:59.461Z,99.90
2018-07-08T03:47:25.371Z,99.90
2018-07-08T03:49:51.278Z,99.90
2018-07-08T03:52:17.219Z,99.90
2018-07-08T03:54:43.135Z,99.90
2018-07-08T03:57:09.074Z,99.90
2018-07-08T03:59:34.981Z,99.90
2018-07-08T04:02:00.899Z,99.90
2018-07-08T04:04:26.806Z,99.90
2018-07-08T04:06:52.750Z,99.90
2018-07-08T04:09:18.658Z,99.90
2018-07-08T04:11:44.563Z,99.90
2018-07-08T04:14:10.501Z,99.90
2018-07-08T04:16:36.418Z,99.90
2018-07-08T04:19:02.352Z,99.90
2018-07-08T04:21:28.254Z,99.90
2018-07-08T04:23:54.199Z,99.90
2018-07-08T04:26:20.106Z,99.90
2018-07-08T04:28:46.052Z,99.90
2018-07-08T04:31:11.945Z,99.90
2018-07-08T04:33:37.873Z,99.90
2018-07-08T04:36:03.783Z,99.90
2018-07-08T04:38:29.696Z,99.90
2018-07-08T04:40:55.624Z,99.90
2018-07-08T04:43:21.594Z,99.90
2018-07-08T04:45:47.523Z,99.90
2018-07-08T04:48:13.424Z,99.90
2018-07-08T04:50:39.348Z,99.90
2018-07-08T04:53:05.272Z,99.90
2018-07-08T04:55:31.211Z,99.90
2018-07-08T04:57:57.115Z,99.90
2018-07-08T05:00:23.049Z,99.90
2018-07-08T05:02:48.959Z,99.90
2018-07-08T05:05:14.865Z,99.90
2018-07-08T05:07:40.792Z,99.90
2018-07-08T05:10:06.705Z,99.90
2018-07-08T05:12:32.631Z,99.90
2018-07-08T05:14:58.546Z,99.90
2018-07-08T05:17:24.493Z,99.90
2018-07-08T05:19:50.394Z,99.90
2018-07-08T05:22:16.313Z,99.90
2018-07-08T05:24:42.223Z,99.90
2018-07-08T05:27:08.380Z,99.90
2018-07-08T05:29:34.292Z,99.90
2018-07-08T05:32:00.209Z,99.90
2018-07-08T05:34:26.138Z,99.90
2018-07-08T05:36:52.043Z,99.90
2018-07-08T05:39:17.979Z,99.90
2018-07-08T05:41:43.890Z,99.90
2018-07-08T05:44:09.839Z,99.90
2018-07-08T05:46:35.757Z,99.90
2018-07-08T05:49:01.683Z,99.90
2018-07-08T05:51:27.579Z,99.90
2018-07-08T05:53:53.510Z,99.90
2018-07-08T05:56:19.418Z,99.90
2018-07-08T05:58:45.320Z,99.90
2018-07-08T06:01:11.254Z,99.90
2018-07-08T06:03:37.162Z,99.90
2018-07-08T06:06:03.104Z,99.90
2018-07-08T06:08:29.007Z,99.90
2018-07-08T06:10:54.950Z,99.90
2018-07-08T06:13:20.880Z,99.90
2018-07-08T06:15:46.822Z,99.90
2018-07-08T06:18:12.724Z,99.90
2018-07-08T06:20:38.635Z,99.90
2018-07-08T06:23:04.562Z,99.90
2018-07-08T06:25:30.469Z,99.90
2018-07-08T06:27:56.420Z,99.90
2018-07-08T06:30:22.318Z,99.90
2018-07-08T06:32:48.244Z,99.90
2018-07-08T06:35:14.142Z,99.90
2018-07-08T06:37:40.089Z,99.90
2018-07-08T06:40:06.007Z,99.90
2018-07-08T06:42:31.922Z,99.90
2018-07-08T06:44:57.863Z,99.90
2018-07-08T06:47:23.813Z,99.90
2018-07-08T06:49:49.745Z,99.90
2018-07-08T06:52:16.414Z,99.90
2018-07-08T06:54:42.338Z,99.90
2018-07-08T06:57:08.250Z,99.90
2018-07-08T06:59:34.203Z,99.90
2018-07-08T07:02:00.113Z,99.90
2018-07-08T07:04:26.087Z,99.50
2018-07-08T07:06:52.734Z,97.80
2018-07-08T07:09:19.385Z,96.90
2018-07-08T07:11:45.369Z,96.90
2018-07-08T07:14:11.248Z,96.60
2018-07-08T07:16:37.185Z,96.30
2018-07-08T07:19:03.107Z,95.00
2018-07-08T07:21:29.090Z,95.10
2018-07-08T07:23:54.998Z,95.60
2018-07-08T07:26:21.679Z,95.70
2018-07-08T07:28:47.577Z,95.60
2018-07-08T07:31:13.502Z,96.10
2018-07-08T07:33:39.434Z,97.60
2018-07-08T07:36:05.350Z,97.90
2018-07-08T07:38:31.295Z,98.50
2018-07-08T07:40:57.214Z,99.70
2018-07-08T07:43:23.147Z,99.60
2018-07-08T07:45:49.044Z,99.10
2018-07-08T07:48:14.974Z,99.70
2018-07-08T07:50:40.879Z,98.90
2018-07-08T07:53:06.828Z,96.60
2018-07-08T07:55:32.741Z,96.10
2018-07-08T07:57:58.647Z,95.30
2018-07-08T08:00:24.573Z,94.10
2018-07-08T08:02:50.476Z,95.40
2018-07-08T08:05:17.144Z,92.70
2018-07-08T08:07:43.161Z,92.80
2018-07-08T08:10:09.092Z,91.20
2018-07-08T08:12:35.261Z,88.50
2018-07-08T08:15:01.363Z,88.70
2018-07-08T08:17:27.271Z,81.40
2018-07-08T08:19:53.210Z,79.10
2018-07-08T08:22:19.131Z,78.20
2018-07-08T08:24:45.057Z,77.50
2018-07-08T08:27:10.964Z,71.90
2018-07-08T08:29:36.858Z,72.00
2018-07-08T08:32:02.788Z,73.80
2018-07-08T08:34:28.694Z,73.90
2018-07-08T08:36:54.615Z,71.60
2018-07-08T08:39:20.518Z,71.50
2018-07-08T08:41:47.191Z,72.20
2018-07-08T08:44:13.120Z,72.20
2018-07-08T08:46:39.090Z,65.40
2018-07-08T08:49:05.753Z,63.40
2018-07-08T08:51:31.683Z,63.10
2018-07-08T08:53:57.790Z,64.20
2018-07-08T08:56:23.806Z,61.30
2018-07-08T08:58:50.458Z,62.00
2018-07-08T09:01:16.392Z,61.90
2018-07-08T09:03:42.372Z,60.70
2018-07-08T09:06:08.243Z,59.20
2018-07-08T09:08:34.167Z,59.80
2018-07-08T09:11:00.066Z,58.80
2018-07-08T09:13:25.987Z,57.70
2018-07-08T09:15:51.916Z,58.00
2018-07-08T09:18:17.851Z,56.90
2018-07-08T09:20:43.774Z,56.30
2018-07-08T09:23:09.710Z,56.10
2018-07-08T09:25:35.621Z,56.80
2018-07-08T09:28:01.553Z,54.60
2018-07-08T09:30:27.463Z,55.80
2018-07-08T09:32:53.371Z,57.70
2018-07-08T09:35:19.323Z,58.80
2018-07-08T09:37:45.227Z,56.90
2018-07-08T09:40:11.152Z,55.90
2018-07-08T09:42:37.062Z,58.30
2018-07-08T09:45:02.979Z,57.80
2018-07-08T09:47:28.901Z,55.70
2018-07-08T09:49:54.856Z,56.50
2018-07-08T09:52:20.769Z,56.10
2018-07-08T09:54:46.690Z,55.00
2018-07-08T09:57:12.653Z,57.10
2018-07-08T09:59:38.558Z,57.00
2018-07-08T10:02:04.480Z,56.20
2018-07-08T10:04:30.427Z,56.90
2018-07-08T10:06:56.342Z,55.90
2018-07-08T10:09:23.007Z,56.40
2018-07-08T10:11:48.916Z,56.30
2018-07-08T10:14:14.852Z,58.80
2018-07-08T10:16:40.755Z,61.90
2018-07-08T10:19:07.410Z,62.60
2018-07-08T10:21:33.364Z,62.60
2018-07-08T10:23:59.276Z,62.90
2018-07-08T10:26:25.185Z,62.00
2018-07-08T10:28:51.120Z,64.10
2018-07-08T10:31:17.031Z,64.40
2018-07-08T10:33:42.964Z,64.30
2018-07-08T10:36:08.868Z,65.30
2018-07-08T10:38:34.794Z,66.50
2018-07-08T10:41:00.696Z,65.70
2018-07-08T10:43:26.685Z,65.70
2018-07-08T10:45:52.579Z,68.50
2018-07-08T10:48:18.477Z,67.50
2018-07-08T10:50:44.402Z,69.20
2018-07-08T10:53:10.341Z,69.90
2018-07-08T10:55:36.279Z,70.00
2018-07-08T10:58:02.197Z,70.50
2018-07-08T11:00:28.145Z,71.50
2018-07-08T11:02:54.050Z,73.30
2018-07-08T11:05:19.997Z,73.10
2018-07-08T11:07:46.649Z,69.70
2018-07-08T11:10:13.293Z,71.90
2018-07-08T11:12:39.209Z,71.70
2018-07-08T11:15:05.847Z,70.10
2018-07-08T11:17:31.770Z,69.80
2018-07-08T11:19:57.680Z,69.80
2018-07-08T11:22:24.341Z,71.60
2018-07-08T11:24:50.234Z,71.60
2018-07-08T11:27:16.874Z,71.50
2018-07-08T11:29:43.548Z,72.30
2018-07-08T11:32:09.450Z,72.00
2018-07-08T11:34:35.378Z,70.80
2018-07-08T11:37:01.312Z,71.90
2018-07-08T11:39:27.238Z,71.40
2018-07-08T11:41:53.148Z,73.50
2018-07-08T11:44:19.060Z,76.10
2018-07-08T11:46:44.991Z,74.30
2018-07-08T11:49:10.891Z,74.10
2018-07-08T11:51:37.554Z,74.30
2018-07-08T11:54:03.505Z,74.30
2018-07-08T11:56:29.427Z,74.90
2018-07-08T11:58:55.342Z,76.30
2018-07-08T12:01:21.290Z,79.10
2018-07-08T12:03:47.210Z,76.90
2018-07-08T12:06:13.117Z,76.50
2018-07-08T12:08:39.040Z,78.60
2018-07-08T12:11:04.942Z,75.60
2018-07-08T12:13:30.876Z,74.70
2018-07-08T12:15:56.798Z,75.90
2018-07-08T12:18:22.727Z,77.90
2018-07-08T12:20:48.638Z,79.40
2018-07-08T12:23:14.620Z,80.80
2018-07-08T12:25:40.557Z,81.00
2018-07-08T12:28:06.459Z,78.90
2018-07-08T12:30:33.130Z,80.70
2018-07-08T12:32:59.039Z,81.20
2018-07-08T12:35:24.974Z,81.10
2018-07-08T12:37:50.869Z,82.10
2018-07-08T12:40:16.804Z,82.90
2018-07-08T12:42:42.718Z,83.60
2018-07-08T12:45:08.645Z,83.30
2018-07-08T12:47:34.553Z,83.70
2018-07-08T12:50:00.498Z,83.20
2018-07-08T12:52:26.394Z,85.30
2018-07-08T12:54:52.338Z,85.10
2018-07-08T12:57:18.268Z,85.00
2018-07-08T12:59:44.184Z,85.00
2018-07-08T13:02:10.113Z,85.10
2018-07-08T13:04:36.030Z,85.80
2018-07-08T13:07:01.958Z,86.10
2018-07-08T13:09:27.881Z,85.80
2018-07-08T13:11:53.822Z,86.50
2018-07-08T13:14:19.723Z,86.60
2018-07-08T13:16:45.645Z,88.70
2018-07-08T13:19:11.550Z,86.80
2018-07-08T13:21:37.468Z,87.10
2018-07-08T13:24:03.395Z,87.60
2018-07-08T13:26:29.364Z,87.80
2018-07-08T13:28:55.282Z,88.70
2018-07-08T13:31:21.216Z,89.80
2018-07-08T13:33:47.152Z,90.10
2018-07-08T13:36:13.791Z,88.40
2018-07-08T13:38:40.470Z,89.60
2018-07-08T13:41:06.378Z,89.60
2018-07-08T13:43:32.292Z,90.10
2018-07-08T13:45:58.214Z,90.60
2018-07-08T13:48:24.155Z,90.50
2018-07-08T13:50:50.089Z,90.10
2018-07-08T13:53:15.997Z,90.30
2018-07-08T13:55:41.987Z,90.40
2018-07-08T13:58:07.842Z,90.10
2018-07-08T14:00:33.768Z,90.90
2018-07-08T14:02:59.684Z,90.50
2018-07-08T14:05:25.624Z,90.40
2018-07-08T14:07:51.535Z,90.60
2018-07-08T14:10:17.459Z,91.00
2018-07-08T14:12:43.389Z,91.30
2018-07-08T14:15:09.295Z,92.00
2018-07-08T14:17:35.216Z,91.60
2018-07-08T14:20:01.131Z,91.20
2018-07-08T14:22:27.091Z,91.20
2018-07-08T14:24:52.992Z,91.30
2018-07-08T14:27:18.901Z,92.00
2018-07-08T14:29:44.835Z,91.40
2018-07-08T14:32:10.758Z,92.30
2018-07-08T14:34:36.707Z,91.30
2018-07-08T14:37:02.613Z,91.90
2018-07-08T14:39:28.545Z,92.20
2018-07-08T14:41:54.451Z,92.10
2018-07-08T14:44:20.389Z,92.30
2018-07-08T14:46:46.299Z,93.00
2018-07-08T14:49:12.202Z,92.40
2018-07-08T14:51:38.145Z,92.50
2018-07-08T14:54:04.071Z,92.80
2018-07-08T14:56:30.002Z,93.70
2018-07-08T14:58:55.911Z,92.90
2018-07-08T15:01:21.837Z,92.50
2018-07-08T15:03:47.754Z,92.40
2018-07-08T15:06:13.705Z,92.50
2018-07-08T15:08:40.372Z,93.20
2018-07-08T15:11:06.302Z,93.20
2018-07-08T15:13:32.234Z,93.40
2018-07-08T15:15:58.219Z,93.40
2018-07-08T15:18:24.113Z,93.90
2018-07-08T15:20:50.051Z,94.30
2018-07-08T15:23:16.722Z,93.70
2018-07-08T15:25:42.630Z,93.70
2018-07-08T15:28:08.576Z,93.80
2018-07-08T15:30:34.505Z,94.00
2018-07-08T15:33:00.452Z,93.80
2018-07-08T15:35:26.368Z,94.10
2018-07-08T15:37:52.286Z,94.20
2018-07-08T15:40:18.239Z,93.80
2018-07-08T15:42:44.880Z,93.60
2018-07-08T15:45:11.552Z,93.30
2018-07-08T15:47:37.453Z,93.30
2018-07-08T15:50:03.387Z,94.10
2018-07-08T15:52:29.289Z,93.60
2018-07-08T15:54:56.694Z,93.40
2018-07-08T15:57:29.527Z,93.40
2018-07-08T15:59:56.191Z,93.50
2018-07-08T16:02:22.108Z,93.40
2018-07-08T16:04:48.011Z,93.50
2018-07-08T16:07:14.675Z,94.00
2018-07-08T16:09:40.588Z,93.90
2018-07-08T16:12:06.533Z,93.60
2018-07-08T16:14:32.550Z,93.50
2018-07-08T16:16:58.602Z,93.30
2018-07-08T16:19:24.538Z,93.90
2018-07-08T16:21:51.200Z,93.30
2018-07-08T16:24:17.863Z,93.60
2018-07-08T16:26:43.788Z,93.50
2018-07-08T16:29:09.712Z,93.30
2018-07-08T16:31:35.626Z,93.40
2018-07-08T16:34:01.583Z,93.60
2018-07-08T16:36:27.474Z,92.50
2018-07-08T16:38:53.383Z,92.70
2018-07-08T16:41:19.327Z,93.60
2018-07-08T16:43:45.226Z,93.70
2018-07-08T16:46:11.283Z,93.90
2018-07-08T16:48:37.205Z,94.10
2018-07-08T16:51:03.114Z,94.40
2018-07-08T16:53:29.024Z,94.20
2018-07-08T16:55:54.955Z,94.50
2018-07-08T16:58:20.865Z,94.80
2018-07-08T17:00:46.810Z,95.00
2018-07-08T17:03:12.787Z,94.70
2018-07-08T17:05:38.695Z,94.20
2018-07-08T17:08:04.628Z,94.80
2018-07-08T17:10:30.554Z,94.50
2018-07-08T17:12:57.208Z,94.70
2018-07-08T17:15:23.120Z,94.70
2018-07-08T17:17:49.047Z,94.60
2018-07-08T17:20:14.967Z,94.80
2018-07-08T17:22:40.902Z,95.70
2018-07-08T17:25:06.822Z,95.00
2018-07-08T17:27:32.729Z,95.00
2018-07-08T17:29:58.664Z,95.50
2018-07-08T17:32:24.572Z,95.70
2018-07-08T17:34:50.504Z,95.70
2018-07-08T17:37:16.411Z,96.40
2018-07-08T17:39:42.355Z,96.70
2018-07-08T17:42:08.274Z,95.80
2018-07-08T17:44:34.227Z,95.90
2018-07-08T17:47:00.168Z,96.00
2018-07-08T17:49:26.089Z,96.10
2018-07-08T17:51:52.031Z,95.40
2018-07-08T17:54:18.706Z,95.40
2018-07-08T17:56:44.624Z,95.40
2018-07-08T17:59:10.543Z,95.70
2018-07-08T18:01:36.458Z,95.70
2018-07-08T18:04:02.364Z,95.90
2018-07-08T18:06:28.301Z,96.00
2018-07-08T18:08:54.238Z,96.20
2018-07-08T18:11:20.145Z,96.90
2018-07-08T18:13:46.088Z,96.20
2018-07-08T18:16:12.052Z,96.60
2018-07-08T18:18:37.946Z,97.10
2018-07-08T18:21:03.855Z,97.50
2018-07-08T18:23:29.800Z,97.20
2018-07-08T18:25:55.715Z,97.60
2018-07-08T18:28:21.644Z,97.30
2018-07-08T18:30:47.567Z,97.70
2018-07-08T18:33:13.506Z,97.60
2018-07-08T18:35:40.162Z,97.60
2018-07-08T18:38:06.108Z,97.60
2018-07-08T18:40:32.023Z,98.00
2018-07-08T18:42:57.940Z,97.50
2018-07-08T18:45:23.864Z,97.20
2018-07-08T18:47:49.783Z,97.10
2018-07-08T18:50:15.719Z,97.40
2018-07-08T18:52:41.626Z,97.50
2018-07-08T18:55:07.549Z,97.80
2018-07-08T18:57:33.490Z,97.70
2018-07-08T18:59:59.424Z,97.70
2018-07-08T19:02:25.372Z,97.50
2018-07-08T19:04:51.275Z,97.80
2018-07-08T19:07:17.198Z,98.30
2018-07-08T19:09:43.164Z,98.30
2018-07-08T19:12:09.146Z,97.80
2018-07-08T19:14:35.045Z,98.50
2018-07-08T19:17:00.999Z,98.60
2018-07-08T19:19:26.913Z,98.70
2018-07-08T19:21:52.830Z,99.00
2018-07-08T19:24:18.797Z,99.20
2018-07-08T19:26:45.487Z,99.10
2018-07-08T19:29:11.407Z,99.10
2018-07-08T19:31:37.325Z,99.20
2018-07-08T19:34:03.268Z,99.10
2018-07-08T19:36:29.174Z,99.00
2018-07-08T19:38:55.113Z,99.10
2018-07-08T19:41:21.026Z,99.50
2018-07-08T19:43:46.946Z,99.60
2018-07-08T19:46:12.860Z,99.90
2018-07-08T19:48:38.810Z,99.90
2018-07-08T19:51:05.462Z,99.90
2018-07-08T19:53:32.107Z,99.90
2018-07-08T19:55:58.043Z,99.90
2018-07-08T19:58:23.948Z,99.90
2018-07-08T20:00:50.610Z,99.90
2018-07-08T20:03:16.512Z,99.90
2018-07-08T20:05:42.429Z,99.90
2018-07-08T20:08:09.072Z,99.90
2018-07-08T20:10:35.741Z,99.90
2018-07-08T20:13:01.655Z,99.90
2018-07-08T20:15:27.596Z,99.90
2018-07-08T20:17:54.249Z,99.90
2018-07-08T20:20:20.184Z,99.90
2018-07-08T20:22:46.122Z,99.90
2018-07-08T20:25:12.793Z,99.90
2018-07-08T20:27:38.739Z,99.90
2018-07-08T20:30:04.650Z,99.90
2018-07-08T20:32:30.575Z,99.90
2018-07-08T20:34:56.500Z,99.90
2018-07-08T20:37:22.447Z,99.90
2018-07-08T20:39:48.368Z,99.90
2018-07-08T20:42:14.271Z,99.90
2018-07-08T20:44:40.189Z,99.90
2018-07-08T20:47:06.189Z,99.90
2018-07-08T20:49:32.122Z,99.90
2018-07-08T20:51:58.043Z,99.90
2018-07-08T20:54:23.970Z,99.90
2018-07-08T20:56:49.875Z,99.90
2018-07-08T20:59:15.790Z,99.90
2018-07-08T21:01:41.721Z,99.90
2018-07-08T21:04:07.649Z,99.90
2018-07-08T21:06:33.577Z,99.90
2018-07-08T21:08:59.490Z,99.90
2018-07-08T21:11:25.405Z,99.90
2018-07-08T21:13:51.311Z,99.90
2018-07-08T21:16:17.251Z,99.90
2018-07-08T21:18:43.208Z,99.90
2018-07-08T21:21:09.145Z,99.90
2018-07-08T21:23:35.044Z,99.90
2018-07-08T21:26:00.966Z,99.90
2018-07-08T21:28:26.873Z,99.90
2018-07-08T21:30:53.036Z,99.90
2018-07-08T21:33:18.942Z,99.90
2018-07-08T21:35:45.641Z,99.90
2018-07-08T21:38:11.581Z,99.90
2018-07-08T21:40:37.487Z,99.90
2018-07-08T21:43:03.425Z,99.90
2018-07-08T21:45:29.336Z,99.90
2018-07-08T21:47:55.267Z,99.90
2018-07-08T21:50:21.168Z,99.90
2018-07-08T21:52:47.107Z,99.90
2018-07-08T21:55:13.017Z,99.90
2018-07-08T21:57:38.964Z,99.90
2018-07-08T22:00:05.606Z,99.90
2018-07-08T22:02:31.521Z,99.90
2018-07-08T22:04:57.461Z,99.90
2018-07-08T22:07:23.359Z,99.90
2018-07-08T22:09:49.290Z,99.90
2018-07-08T22:12:15.199Z,99.90
2018-07-08T22:14:41.130Z,99.90
2018-07-08T22:17:07.038Z,99.90
2018-07-08T22:19:32.973Z,99.90
2018-07-08T22:21:58.864Z,99.90
2018-07-08T22:24:24.799Z,99.90
2018-07-08T22:26:50.703Z,99.90
2018-07-08T22:29:16.606Z,99.90
2018-07-08T22:31:43.272Z,99.90
2018-07-08T22:34:09.187Z,99.90
2018-07-08T22:36:35.119Z,99.90
2018-07-08T22:39:01.026Z,99.90
2018-07-08T22:41:26.954Z,99.90
2018-07-08T22:43:52.866Z,99.90
2018-07-08T22:46:18.803Z,99.90
2018-07-08T22:48:44.728Z,99.90
2018-07-08T22:51:10.671Z,99.90
2018-07-08T22:53:36.580Z,99.90
2018-07-08T22:56:02.513Z,99.90
2018-07-08T22:58:29.256Z,99.90
2018-07-08T23:00:55.196Z,99.90
2018-07-08T23:03:21.156Z,99.90
2018-07-08T23:05:47.078Z,99.90
2018-07-08T23:08:13.009Z,99.90
2018-07-08T23:10:38.913Z,99.90
2018-07-08T23:13:04.878Z,99.90
2018-07-08T23:15:30.793Z,99.90
2018-07-08T23:17:56.677Z,99.90
2018-07-08T23:20:23.347Z,99.90
2018-07-08T23:22:49.262Z,99.90
2018-07-08T23:25:15.200Z,99.90
2018-07-08T23:27:41.110Z,99.90
2018-07-08T23:30:07.041Z,99.90
2018-07-08T23:32:32.958Z,99.90
2018-07-08T23:34:58.874Z,99.90
2018-07-08T23:37:24.781Z,99.90
2018-07-08T23:39:50.714Z,99.90
2018-07-08T23:42:16.628Z,99.90
2018-07-08T23:44:42.599Z,99.90
2018-07-08T23:47:08.506Z,99.90
2018-07-08T23:49:34.414Z,99.90
2018-07-08T23:52:00.335Z,99.90
2018-07-08T23:54:26.250Z,99.90
2018-07-08T23:56:52.179Z,99.90
2018-07-08T23:59:18.096Z,99.90
